KPRC/PRC METAR and TAF weather

Enter ICAO airport designator
Station Type Date Time Source
KPRC METAR 2018/12/10 07:53 UTC NOAA

KPRC 100753Z AUTO 20004KT 10SM CLR M02/M05 A3032 RMK AO2 SLP248 T10171050


Station Type Date Time Source
KPRC Decoded METAR 2018/12/10 07:53 UTC NOAA

PRESCOTT LOVE FIELD, AZ, United States (KPRC) 34-39N 112-25W 1524M
Dec 10, 2018 - 02:53 AM EST / 2018.12.10 0753 UTC
Wind: from the SSW (200 degrees) at 5 MPH (4 KT):0
Visibility: 10 mile(s):0
Sky conditions: clear
Temperature: 28.9 F (-1.7 C)
Windchill: 23 F (-5 C):1
Dew Point: 23.0 F (-5.0 C)
Relative Humidity: 78%
Pressure (altimeter): 30.32 in. Hg (1026 hPa)
ob: KPRC 100753Z AUTO 20004KT 10SM CLR M02/M05 A3032 RMK AO2 SLP248 T10171050
cycle: 8

Station Type Date Time Source
KPRC TAF 2018/12/10 06:22 UTC NOAA

TAF KPRC 100520Z 1006/1106 20006KT P6SM SCT130 BKN200


Example: see airport list